Time;durP1;ratioP1;P1;durP2;ratioP2;P2;SDS_P1;SDS_P2;PMS_P1;PMS_P2;Temp;Humidity;BMP_temperature;BMP_pressure;BME280_temperature;BME280_humidity;BME280_pressure;Samples;Min_cycle;Max_cycle;Signal;HPM_P1;HPM_P2
2023/10/02 06:40:23;;;;;;;10.77;5.55;;;17.40;99.90;;;;;;6209324;23;20028;-76
2023/10/02 06:43:28;;;;;;;12.80;5.95;;;17.40;99.90;;;;;;6209264;23;20378;-76
2023/10/02 06:46:16;;;;;;;13.20;6.75;;;17.50;99.90;;;;;;6208940;23;20080;-76
2023/10/02 06:49:10;;;;;;;13.98;6.85;;;17.50;99.90;;;;;;6211226;23;20020;-77
2023/10/02 06:52:11;;;;;;;14.10;6.20;;;17.60;99.90;;;;;;6211084;23;20058;-77
2023/10/02 06:54:57;;;;;;;13.80;7.13;;;17.60;99.90;;;;;;6211071;23;20082;-76
2023/10/02 06:57:49;;;;;;;12.73;6.20;;;17.70;99.90;;;;;;6207513;23;20060;-77
2023/10/02 07:00:54;;;;;;;11.55;5.80;;;17.70;99.90;;;;;;6209577;23;20013;-76
2023/10/02 07:03:50;;;;;;;11.98;7.07;;;17.70;99.90;;;;;;6208983;23;20446;-77
2023/10/02 07:06:38;;;;;;;14.57;7.43;;;17.80;99.90;;;;;;6211245;23;20431;-77
2023/10/02 07:09:24;;;;;;;13.38;6.88;;;17.80;99.90;;;;;;6208818;23;20009;-76
2023/10/02 07:12:13;;;;;;;12.95;6.68;;;17.90;99.90;;;;;;6211863;23;20043;-76
2023/10/02 07:15:12;;;;;;;13.52;6.90;;;17.90;99.90;;;;;;6238297;23;20078;-77
2023/10/02 07:18:04;;;;;;;13.60;6.10;;;18.00;99.90;;;;;;6240264;23;20015;-79
2023/10/02 07:20:53;;;;;;;12.18;6.20;;;18.00;99.90;;;;;;6238889;23;20412;-76
2023/10/02 07:23:39;;;;;;;14.80;7.03;;;18.10;99.90;;;;;;6238912;23;20012;-61
2023/10/02 07:29:47;;;;;;;16.20;6.82;;;18.20;99.90;;;;;;6239424;23;20008;-61
2023/10/02 07:32:34;;;;;;;16.45;6.63;;;18.20;99.90;;;;;;6238478;23;20386;-61
2023/10/02 07:35:23;;;;;;;17.70;6.88;;;18.40;99.90;;;;;;6237600;23;20611;-61
2023/10/02 07:38:09;;;;;;;15.40;7.55;;;18.40;99.90;;;;;;6238664;23;20066;-61
2023/10/02 07:41:08;;;;;;;14.13;7.43;;;18.40;99.90;;;;;;6228404;23;20345;-61
2023/10/02 07:44:06;;;;;;;14.02;6.53;;;18.50;99.90;;;;;;6240277;23;20008;-62
2023/10/02 07:46:55;;;;;;;14.35;6.70;;;18.60;99.90;;;;;;6238730;23;20389;-61
2023/10/02 07:49:44;;;;;;;14.30;6.40;;;18.60;99.90;;;;;;6239305;23;20442;-61
2023/10/02 07:52:30;;;;;;;13.23;6.90;;;18.70;99.90;;;;;;6239024;23;20015;-61
2023/10/02 07:55:16;;;;;;;15.98;7.40;;;18.70;99.90;;;;;;6239646;22;20030;-61
2023/10/02 07:58:04;;;;;;;13.38;5.93;;;18.80;99.90;;;;;;6238988;23;20039;-61
2023/10/02 08:00:50;;;;;;;21.90;7.00;;;18.90;99.90;;;;;;6236398;23;20462;-60
2023/10/02 08:03:49;;;;;;;14.35;5.88;;;19.00;99.90;;;;;;6239556;23;20019;-61
2023/10/02 08:06:36;;;;;;;13.95;6.75;;;19.00;99.90;;;;;;6240867;23;20016;-61
2023/10/02 08:09:39;;;;;;;14.10;6.15;;;19.10;99.90;;;;;;6238017;23;20008;-60
2023/10/02 08:12:33;;;;;;;13.77;6.47;;;19.20;99.90;;;;;;6237550;23;20023;-64
2023/10/02 08:15:26;;;;;;;12.45;6.03;;;19.30;99.90;;;;;;6238780;23;20465;-62
2023/10/02 08:18:19;;;;;;;12.32;6.28;;;19.40;99.90;;;;;;6239311;23;20008;-61
2023/10/02 08:21:05;;;;;;;14.45;6.90;;;19.60;99.90;;;;;;6239633;23;20016;-62
2023/10/02 08:23:52;;;;;;;13.10;6.30;;;19.70;99.90;;;;;;6239291;23;20087;-61
2023/10/02 08:26:40;;;;;;;13.80;5.43;;;19.80;99.80;;;;;;6238992;23;20094;-61
2023/10/02 08:29:27;;;;;;;12.18;6.38;;;20.00;99.80;;;;;;6239362;23;20015;-61
2023/10/02 08:32:28;;;;;;;15.57;6.13;;;20.10;99.60;;;;;;6240569;23;20408;-61
2023/10/02 08:35:14;;;;;;;13.68;6.20;;;20.30;99.60;;;;;;6239974;23;20099;-61
2023/10/02 08:38:00;;;;;;;14.45;6.18;;;20.40;99.40;;;;;;6239507;23;20020;-60
2023/10/02 08:40:46;;;;;;;13.75;6.07;;;20.50;99.20;;;;;;6227914;23;20273;-60
2023/10/02 08:43:32;;;;;;;10.68;5.88;;;20.60;99.10;;;;;;6238416;23;20008;-61
2023/10/02 08:46:24;;;;;;;16.23;6.60;;;20.70;98.90;;;;;;6239735;23;20012;-61
2023/10/02 08:49:12;;;;;;;11.77;6.65;;;20.80;98.90;;;;;;6240655;23;20051;-63
2023/10/02 08:52:00;;;;;;;10.15;6.20;;;20.90;98.70;;;;;;6239164;23;20489;-61
2023/10/02 08:54:46;;;;;;;15.07;7.32;;;20.90;98.40;;;;;;6238467;23;20315;-61
2023/10/02 08:57:49;;;;;;;12.95;6.45;;;21.00;98.20;;;;;;6239951;23;20008;-60
2023/10/02 09:00:38;;;;;;;14.27;6.18;;;21.10;98.10;;;;;;6238805;23;20012;-61
2023/10/02 09:03:24;;;;;;;15.38;5.85;;;21.20;97.90;;;;;;6239911;23;20046;-61
2023/10/02 09:09:36;;;;;;;10.50;5.30;;;21.30;97.70;;;;;;6149691;23;20079;-60
2023/10/02 09:12:22;;;;;;;11.35;5.57;;;21.30;97.70;;;;;;6148521;23;20006;-61
2023/10/02 09:15:24;;;;;;;9.60;6.10;;;21.50;97.70;;;;;;6147873;23;20391;-61
2023/10/02 09:18:22;;;;;;;12.85;5.75;;;21.50;97.60;;;;;;6150226;23;20010;-73
2023/10/02 09:21:15;;;;;;;9.77;5.07;;;21.60;97.50;;;;;;6150092;23;20048;-73
2023/10/02 09:24:02;;;;;;;12.48;5.15;;;21.70;97.70;;;;;;6149022;23;20009;-75
2023/10/02 09:26:49;;;;;;;13.07;6.63;;;21.80;97.50;;;;;;6148359;23;20009;-73
2023/10/02 09:29:35;;;;;;;11.40;5.18;;;21.90;97.50;;;;;;6148946;23;20497;-74
2023/10/02 09:32:24;;;;;;;12.63;5.30;;;22.00;97.20;;;;;;6149393;23;20294;-73
2023/10/02 09:35:11;;;;;;;10.55;5.13;;;22.10;97.10;;;;;;6128396;23;20076;-73
2023/10/02 09:38:04;;;;;;;9.52;5.15;;;22.20;97.00;;;;;;6149834;23;20093;-73
2023/10/02 09:43:52;;;;;;;9.95;5.53;;;22.40;96.60;;;;;;6156272;23;20013;-73
2023/10/02 09:46:40;;;;;;;9.45;5.22;;;22.40;96.60;;;;;;6241145;23;20019;-74
2023/10/02 09:49:30;;;;;;;9.50;5.05;;;22.50;96.50;;;;;;6240907;23;20083;-74
2023/10/02 09:52:33;;;;;;;11.55;5.40;;;22.60;96.40;;;;;;6216509;23;20016;-74
2023/10/02 09:55:46;;;;;;;12.48;4.82;;;22.70;96.20;;;;;;6240893;22;20046;-73
2023/10/02 09:58:47;;;;;;;11.57;4.47;;;22.80;96.20;;;;;;6242365;23;20008;-73
2023/10/02 10:01:34;;;;;;;10.77;4.57;;;22.90;96.10;;;;;;6240565;23;20496;-73
2023/10/02 10:04:32;;;;;;;10.85;5.43;;;23.00;95.90;;;;;;6241672;23;20499;-73
2023/10/02 10:07:37;;;;;;;12.48;5.35;;;23.10;95.80;;;;;;6240484;23;20062;-73
2023/10/02 10:10:50;;;;;;;8.75;4.38;;;23.10;95.50;;;;;;6240834;23;20067;-73
2023/10/02 10:13:37;;;;;;;10.00;5.00;;;23.20;95.30;;;;;;6241459;23;20087;-75
2023/10/02 10:16:23;;;;;;;13.35;4.80;;;23.40;95.40;;;;;;6240240;23;20016;-75
2023/10/02 10:21:56;;;;;;;10.50;4.70;;;23.60;95.00;;;;;;6240844;23;20046;-73
2023/10/02 10:25:44;;;;;;;9.00;4.68;;;23.70;94.90;;;;;;6241091;23;20012;-74
2023/10/02 10:27:59;;;;;;;9.80;4.57;;;23.80;95.10;;;;;;6230937;23;20012;-73
2023/10/02 10:30:50;;;;;;;12.05;5.03;;;23.80;94.80;;;;;;6240516;23;20086;-74
2023/10/02 10:33:40;;;;;;;14.50;5.88;;;23.90;94.50;;;;;;6239993;23;20016;-74
2023/10/02 10:36:37;;;;;;;11.23;4.97;;;24.00;94.50;;;;;;6239365;23;20016;-74
2023/10/02 10:39:51;;;;;;;12.10;4.75;;;24.10;94.50;;;;;;6240209;23;20028;-73
2023/10/02 10:42:59;;;;;;;12.52;5.20;;;24.20;94.50;;;;;;6242297;23;20008;-75
2023/10/02 10:45:48;;;;;;;10.73;5.45;;;24.20;94.50;;;;;;6240210;23;20016;-74
2023/10/02 10:48:34;;;;;;;8.95;4.85;;;24.30;94.20;;;;;;6217885;23;20008;-74
2023/10/02 10:51:21;;;;;;;8.55;4.32;;;24.40;94.30;;;;;;6239175;23;20012;-74
2023/10/02 10:54:12;;;;;;;10.15;5.53;;;24.40;94.20;;;;;;6241787;23;20035;-75
2023/10/02 10:57:19;;;;;;;9.98;4.43;;;24.50;94.10;;;;;;6240704;22;20446;-73
2023/10/02 11:00:25;;;;;;;8.35;3.83;;;24.50;93.70;;;;;;6240155;23;20008;-74
2023/10/02 11:03:14;;;;;;;7.75;3.95;;;24.60;93.60;;;;;;6240166;23;20385;-73
2023/10/02 11:06:04;;;;;;;10.32;4.90;;;24.60;93.60;;;;;;6240681;23;20389;-74
2023/10/02 11:09:16;;;;;;;8.63;4.28;;;24.60;93.50;;;;;;6239447;23;20011;-74
2023/10/02 11:12:12;;;;;;;7.07;3.60;;;24.60;93.50;;;;;;6239355;23;20093;-74
2023/10/02 11:14:58;;;;;;;6.85;3.55;;;24.60;93.40;;;;;;6240332;23;20385;-74
2023/10/02 11:17:45;;;;;;;8.90;4.15;;;24.60;93.30;;;;;;6239721;23;20014;-74
2023/10/02 11:20:31;;;;;;;10.45;4.97;;;24.60;93.30;;;;;;6239533;23;20450;-75
2023/10/02 11:23:40;;;;;;;7.70;4.30;;;24.60;93.20;;;;;;6239556;23;20008;-74
2023/10/02 11:26:26;;;;;;;7.78;4.05;;;24.60;93.20;;;;;;6239398;23;20015;-74
2023/10/02 11:29:20;;;;;;;10.40;4.28;;;24.70;93.40;;;;;;6239224;23;20015;-72
2023/10/02 11:32:19;;;;;;;7.53;3.75;;;24.70;93.40;;;;;;6239421;23;20346;-75
2023/10/02 11:35:07;;;;;;;8.27;4.60;;;24.70;93.30;;;;;;6241809;23;20016;-75
2023/10/02 11:37:53;;;;;;;9.98;5.22;;;24.70;93.10;;;;;;6241309;23;20015;-74
2023/10/02 11:40:43;;;;;;;8.18;4.28;;;24.80;92.90;;;;;;6240022;23;20047;-76
2023/10/02 11:43:29;;;;;;;9.50;4.25;;;24.90;92.90;;;;;;6240589;23;20036;-75
2023/10/02 11:46:15;;;;;;;8.00;4.40;;;24.90;92.70;;;;;;6239067;23;20078;-74
2023/10/02 11:49:00;;;;;;;11.27;5.13;;;24.90;92.50;;;;;;6239570;23;20035;-75
2023/10/02 11:51:46;;;;;;;12.52;5.45;;;25.00;92.30;;;;;;6239446;23;20087;-76
2023/10/02 11:54:42;;;;;;;10.32;4.93;;;25.00;92.10;;;;;;6238240;23;20616;-73
2023/10/02 11:57:29;;;;;;;9.02;4.53;;;25.00;92.30;;;;;;6238275;23;20012;-74
2023/10/02 12:00:15;;;;;;;8.98;4.43;;;25.10;92.30;;;;;;6239292;23;20334;-75
2023/10/02 12:03:02;;;;;;;13.82;5.20;;;25.10;91.90;;;;;;6238306;23;20074;-75
2023/10/02 12:05:50;;;;;;;7.55;4.53;;;25.10;91.80;;;;;;6240522;23;20008;-74
2023/10/02 12:08:38;;;;;;;11.20;4.28;;;25.20;91.60;;;;;;6239776;23;20012;-74
2023/10/02 12:11:24;;;;;;;11.68;5.30;;;25.20;91.40;;;;;;6238632;23;20075;-74
2023/10/02 12:14:10;;;;;;;9.73;6.15;;;25.20;91.30;;;;;;6240800;23;20035;-75
2023/10/02 12:16:57;;;;;;;11.27;5.30;;;25.20;91.30;;;;;;6238983;23;20146;-74
2023/10/02 12:19:44;;;;;;;7.82;3.95;;;25.20;91.20;;;;;;6239420;23;20008;-76
2023/10/02 12:22:30;;;;;;;15.45;5.90;;;25.30;91.10;;;;;;6240170;23;20014;-74
2023/10/02 12:25:16;;;;;;;9.48;4.97;;;25.30;91.00;;;;;;6239399;23;20087;-74
2023/10/02 12:28:02;;;;;;;9.18;4.50;;;25.30;91.20;;;;;;6239312;23;20099;-73
2023/10/02 12:30:48;;;;;;;9.50;5.13;;;25.30;91.00;;;;;;6216851;23;20008;-73
2023/10/02 12:33:35;;;;;;;9.45;5.40;;;25.30;90.80;;;;;;6239446;23;20019;-73
2023/10/02 12:36:22;;;;;;;9.18;4.78;;;25.30;90.70;;;;;;6239956;23;20020;-74
2023/10/02 12:39:09;;;;;;;9.38;4.75;;;25.40;90.70;;;;;;6238807;23;20023;-75
2023/10/02 12:41:55;;;;;;;11.65;5.40;;;25.40;90.60;;;;;;6218210;23;20377;-74
2023/10/02 12:44:41;;;;;;;8.40;4.50;;;25.40;90.50;;;;;;6241889;23;20012;-74
2023/10/02 12:47:27;;;;;;;9.65;5.15;;;25.40;90.50;;;;;;6240661;23;20015;-73
2023/10/02 12:50:13;;;;;;;9.07;4.20;;;25.50;90.50;;;;;;6241653;23;20183;-75
2023/10/02 12:52:59;;;;;;;9.77;5.35;;;25.50;90.50;;;;;;6241130;23;20342;-74
2023/10/02 12:55:47;;;;;;;11.15;5.80;;;25.40;90.40;;;;;;6219455;22;20020;-74
2023/10/02 12:58:33;;;;;;;14.55;4.85;;;25.40;90.40;;;;;;6240959;23;20035;-73
2023/10/02 13:01:29;;;;;;;11.20;5.97;;;25.40;90.40;;;;;;6241071;23;20300;-74
2023/10/02 13:04:15;;;;;;;12.55;6.65;;;25.40;90.60;;;;;;6242016;23;20008;-60
2023/10/02 13:07:04;;;;;;;7.75;4.90;;;25.40;90.40;;;;;;6218617;23;20085;-60
2023/10/02 13:09:51;;;;;;;12.75;6.18;;;25.30;90.40;;;;;;6241701;23;20456;-61
2023/10/02 13:12:37;;;;;;;10.07;5.13;;;25.40;90.40;;;;;;6240679;23;20074;-61
2023/10/02 13:15:23;;;;;;;10.13;5.25;;;25.40;90.40;;;;;;6240588;23;20345;-61
2023/10/02 13:18:09;;;;;;;11.02;6.05;;;25.50;90.30;;;;;;6242465;23;20008;-61
2023/10/02 13:20:58;;;;;;;10.77;4.75;;;25.50;90.30;;;;;;6240516;23;20454;-61
2023/10/02 13:23:45;;;;;;;9.32;5.05;;;25.50;90.40;;;;;;6241643;23;20008;-61
2023/10/02 13:26:31;;;;;;;12.13;6.47;;;25.50;90.40;;;;;;6240614;23;20008;-60
2023/10/02 13:29:18;;;;;;;12.95;5.65;;;25.60;90.40;;;;;;6240785;23;20012;-62
2023/10/02 13:32:05;;;;;;;10.70;5.97;;;25.60;90.30;;;;;;6218265;23;20038;-60
2023/10/02 13:34:51;;;;;;;11.05;6.43;;;25.70;90.20;;;;;;6241619;23;20054;-61
2023/10/02 13:37:38;;;;;;;9.52;4.97;;;25.70;90.20;;;;;;6241599;23;20012;-62
2023/10/02 13:40:31;;;;;;;11.75;5.32;;;25.80;90.30;;;;;;6241423;23;20040;-61
2023/10/02 13:43:18;;;;;;;9.85;5.40;;;25.80;90.40;;;;;;6242465;23;20016;-62
2023/10/02 13:46:09;;;;;;;8.82;5.00;;;25.90;90.60;;;;;;6240468;23;20012;-62
2023/10/02 13:48:55;;;;;;;8.32;5.10;;;25.90;90.40;;;;;;6241731;23;20012;-60
2023/10/02 13:51:41;;;;;;;9.32;4.82;;;25.90;90.20;;;;;;6239568;23;20008;-60
2023/10/02 13:54:27;;;;;;;9.50;5.13;;;25.90;90.20;;;;;;6238668;23;20379;-62
2023/10/02 13:57:13;;;;;;;8.55;4.82;;;26.00;90.00;;;;;;6241801;22;20090;-62
2023/10/02 13:59:59;;;;;;;10.70;4.72;;;26.10;89.90;;;;;;6240188;23;20009;-61
2023/10/02 14:02:47;;;;;;;7.75;3.95;;;26.10;89.60;;;;;;6241267;23;20023;-62
2023/10/02 14:05:37;;;;;;;8.80;4.15;;;26.20;89.30;;;;;;6240470;23;20012;-61
2023/10/02 14:08:22;;;;;;;7.57;4.10;;;26.30;89.10;;;;;;6240254;23;20016;-62
2023/10/02 14:11:08;;;;;;;10.52;3.65;;;26.30;89.00;;;;;;6238438;23;20468;-61
2023/10/02 14:13:56;;;;;;;6.80;3.28;;;26.40;88.60;;;;;;6237668;23;20016;-61
2023/10/02 14:16:42;;;;;;;7.43;3.80;;;26.40;88.40;;;;;;6240777;23;20461;-61
2023/10/02 14:19:28;;;;;;;9.55;3.92;;;26.50;88.40;;;;;;6238878;23;20040;-61
2023/10/02 14:22:14;;;;;;;8.65;3.92;;;26.50;88.30;;;;;;6238368;23;20409;-62
2023/10/02 14:25:01;;;;;;;6.20;3.38;;;26.60;88.60;;;;;;6239580;23;20062;-61
2023/10/02 14:27:47;;;;;;;6.72;3.40;;;26.60;87.90;;;;;;6236809;23;20016;-60
2023/10/02 14:30:33;;;;;;;13.75;3.83;;;26.60;87.60;;;;;;6236722;23;20350;-62
2023/10/02 14:33:20;;;;;;;6.50;3.72;;;26.60;87.30;;;;;;6218572;23;20015;-61
2023/10/02 14:36:07;;;;;;;8.10;4.20;;;26.70;87.10;;;;;;6238800;23;20549;-61
2023/10/02 14:38:56;;;;;;;7.82;3.95;;;26.70;86.90;;;;;;6239414;23;20027;-62
2023/10/02 14:41:43;;;;;;;7.30;3.90;;;26.70;87.00;;;;;;6237889;23;20020;-61
2023/10/02 14:44:29;;;;;;;8.73;4.03;;;26.80;87.10;;;;;;6239501;23;20015;-60
2023/10/02 14:47:16;;;;;;;8.73;4.32;;;26.80;86.80;;;;;;6239691;23;20011;-62
2023/10/02 14:50:02;;;;;;;7.95;3.90;;;26.80;86.50;;;;;;6240226;23;20317;-62
2023/10/02 14:52:50;;;;;;;5.95;3.53;;;26.80;86.30;;;;;;6237837;23;20120;-61
2023/10/02 14:55:38;;;;;;;8.35;4.18;;;26.90;86.10;;;;;;6239547;22;20024;-61
2023/10/02 14:58:24;;;;;;;7.15;3.85;;;26.90;86.20;;;;;;6241535;23;20015;-61
2023/10/02 15:01:12;;;;;;;7.35;4.38;;;26.90;86.10;;;;;;6239197;23;20391;-61
2023/10/02 15:03:58;;;;;;;8.20;3.63;;;26.90;86.00;;;;;;6240660;23;20008;-62
2023/10/02 15:06:45;;;;;;;9.00;4.57;;;26.80;85.80;;;;;;6240285;23;20125;-61
2023/10/02 15:09:31;;;;;;;9.30;4.00;;;26.80;85.80;;;;;;6239032;23;20034;-60
2023/10/02 15:12:17;;;;;;;7.05;3.30;;;26.80;85.90;;;;;;6239176;23;20377;-61
2023/10/02 15:15:13;;;;;;;6.22;3.90;;;26.70;85.70;;;;;;6239806;23;20409;-61
2023/10/02 15:18:01;;;;;;;5.20;3.15;;;26.70;85.60;;;;;;6240801;23;20010;-62
2023/10/02 15:20:46;;;;;;;8.70;4.63;;;26.50;85.70;;;;;;6238258;23;20069;-62
2023/10/02 15:23:32;;;;;;;6.60;3.70;;;26.50;85.80;;;;;;6239170;23;20079;-61
2023/10/02 15:26:18;;;;;;;8.00;3.65;;;26.40;85.80;;;;;;6239283;23;20016;-60
2023/10/02 15:29:05;;;;;;;8.13;4.70;;;26.40;86.00;;;;;;6238962;23;20107;-61
2023/10/02 15:31:51;;;;;;;7.47;3.65;;;26.30;86.00;;;;;;6240442;23;20418;-61
2023/10/02 15:34:41;;;;;;;7.65;3.83;;;26.20;86.10;;;;;;6239000;23;20015;-61
2023/10/02 15:37:27;;;;;;;5.97;3.42;;;26.20;86.40;;;;;;6240226;23;20047;-60
2023/10/02 15:40:14;;;;;;;6.72;3.78;;;26.10;86.50;;;;;;6238310;23;20026;-61
2023/10/02 15:43:00;;;;;;;8.15;4.10;;;26.00;86.50;;;;;;6238836;23;20004;-61
2023/10/02 15:45:52;;;;;;;6.93;4.18;;;26.00;86.70;;;;;;6239389;23;20075;-61
2023/10/02 15:48:38;;;;;;;12.10;4.88;;;25.90;86.90;;;;;;6240038;23;20012;-62
2023/10/02 15:51:24;;;;;;;7.38;4.13;;;25.80;87.20;;;;;;6240546;23;20015;-61
2023/10/02 15:54:10;;;;;;;8.45;4.88;;;25.80;87.40;;;;;;6240003;23;20004;-60
2023/10/02 15:57:02;;;;;;;8.18;4.07;;;25.80;87.50;;;;;;6239198;22;20060;-60
2023/10/02 15:59:48;;;;;;;6.47;3.40;;;25.70;87.70;;;;;;6240603;23;20008;-61
2023/10/02 16:02:38;;;;;;;7.55;4.43;;;25.70;87.80;;;;;;6240775;23;20453;-61
2023/10/02 16:05:26;;;;;;;7.88;4.93;;;25.60;87.90;;;;;;6239029;23;20016;-61
2023/10/02 16:08:13;;;;;;;10.20;3.78;;;25.60;88.00;;;;;;6238686;23;20004;-61
2023/10/02 16:10:59;;;;;;;7.47;4.20;;;25.60;88.20;;;;;;6239396;23;20039;-62
2023/10/02 16:13:45;;;;;;;10.45;4.95;;;25.50;88.30;;;;;;6239468;23;20039;-62
2023/10/02 16:16:31;;;;;;;12.48;5.70;;;25.50;88.60;;;;;;6239830;23;20055;-61
2023/10/02 16:19:19;;;;;;;11.27;5.20;;;25.40;89.30;;;;;;6241822;23;20051;-61
2023/10/02 16:22:05;;;;;;;9.60;4.60;;;25.40;89.20;;;;;;6243475;23;20015;-60
2023/10/02 16:24:51;;;;;;;10.63;5.00;;;25.30;89.40;;;;;;6242735;23;20442;-60
2023/10/02 16:27:38;;;;;;;11.10;5.85;;;25.30;89.50;;;;;;6241800;23;20011;-62
2023/10/02 16:30:25;;;;;;;7.13;4.63;;;25.20;89.50;;;;;;6240379;23;20012;-59
2023/10/02 16:33:11;;;;;;;8.45;4.82;;;25.20;89.40;;;;;;6240697;23;20088;-61
2023/10/02 16:35:58;;;;;;;9.90;5.13;;;25.10;89.40;;;;;;6240851;23;20019;-60
2023/10/02 16:38:47;;;;;;;7.97;4.38;;;25.10;89.70;;;;;;6242006;23;20023;-61
2023/10/02 16:41:35;;;;;;;16.30;6.30;;;25.10;89.80;;;;;;6242893;23;20070;-60
2023/10/02 16:44:21;;;;;;;10.15;5.28;;;25.00;90.20;;;;;;6242462;23;20012;-61
2023/10/02 16:47:07;;;;;;;11.30;5.18;;;25.00;90.20;;;;;;6244903;23;20062;-60
2023/10/02 16:49:53;;;;;;;12.43;5.72;;;24.90;90.30;;;;;;6242940;23;20004;-61
2023/10/02 16:52:44;;;;;;;10.43;5.53;;;24.90;90.50;;;;;;6238414;23;20111;-61
2023/10/02 16:55:30;;;;;;;12.73;5.53;;;24.80;90.60;;;;;;6220853;22;20016;-60
2023/10/02 16:58:16;;;;;;;11.95;5.28;;;24.80;90.80;;;;;;6242700;23;20008;-60
2023/10/02 17:01:09;;;;;;;13.60;8.25;;;24.70;90.90;;;;;;6241308;23;20091;-60
2023/10/02 17:03:55;;;;;;;16.02;9.73;;;24.60;91.00;;;;;;6240942;23;20023;-61
2023/10/02 17:06:41;;;;;;;20.13;8.80;;;24.60;91.00;;;;;;6242232;23;20008;-60
2023/10/02 17:09:28;;;;;;;14.90;8.65;;;24.50;91.10;;;;;;6242785;23;20504;-60
2023/10/02 17:12:14;;;;;;;17.25;8.30;;;24.50;91.10;;;;;;6242269;23;20055;-60
2023/10/02 17:15:00;;;;;;;13.45;8.07;;;24.50;91.20;;;;;;6242668;23;20020;-61
2023/10/02 17:17:50;;;;;;;16.45;8.93;;;24.40;91.20;;;;;;6242087;23;20008;-59
2023/10/02 17:20:36;;;;;;;12.93;7.97;;;24.30;91.40;;;;;;6242822;23;20050;-60
2023/10/02 17:23:22;;;;;;;13.43;7.93;;;24.30;91.50;;;;;;6241432;23;20008;-59
2023/10/02 17:26:08;;;;;;;14.48;7.57;;;24.20;91.60;;;;;;6242050;23;20298;-59
2023/10/02 17:28:56;;;;;;;11.93;7.65;;;24.20;91.70;;;;;;6242069;23;20026;-61
2023/10/02 17:31:43;;;;;;;15.68;7.20;;;24.20;91.80;;;;;;6240699;23;20016;-60
2023/10/02 17:34:29;;;;;;;18.48;8.15;;;24.10;91.80;;;;;;6219017;23;20012;-60
2023/10/02 17:37:15;;;;;;;14.55;7.32;;;24.10;91.90;;;;;;6240710;23;20521;-61
2023/10/02 17:40:01;;;;;;;15.30;7.78;;;24.00;91.80;;;;;;6240659;23;20022;-60
2023/10/02 17:42:47;;;;;;;13.02;8.10;;;24.00;91.90;;;;;;6227995;23;20012;-60
2023/10/02 17:45:34;;;;;;;13.70;6.90;;;24.00;92.00;;;;;;6238977;23;20008;-61
2023/10/02 17:48:20;;;;;;;14.05;8.20;;;24.00;92.00;;;;;;6240346;23;20016;-80
2023/10/02 17:51:06;;;;;;;12.05;6.60;;;24.00;92.10;;;;;;6242810;23;20559;-82
2023/10/02 17:53:53;;;;;;;14.55;7.22;;;23.90;92.10;;;;;;6242697;23;20012;-82
2023/10/02 17:56:39;;;;;;;13.52;7.45;;;23.90;92.20;;;;;;6240503;22;20020;-82
2023/10/02 17:59:26;;;;;;;15.63;9.32;;;23.80;92.30;;;;;;6242590;23;20134;-81
2023/10/02 18:02:12;;;;;;;15.40;9.68;;;23.80;92.70;;;;;;6242810;23;20077;-81
2023/10/02 18:04:59;;;;;;;13.35;8.02;;;23.80;92.80;;;;;;6240710;23;20076;-80
2023/10/02 18:07:45;;;;;;;16.05;9.95;;;23.70;93.10;;;;;;6240097;23;20016;-81
2023/10/02 18:10:32;;;;;;;15.43;9.05;;;23.70;93.20;;;;;;6240554;23;20012;-82
2023/10/02 18:13:19;;;;;;;17.10;9.77;;;23.60;93.30;;;;;;6240544;23;20015;-81
2023/10/02 18:16:05;;;;;;;23.40;11.25;;;23.60;93.40;;;;;;6240330;23;20433;-82
2023/10/02 18:18:52;;;;;;;16.58;9.43;;;23.60;93.70;;;;;;6239421;23;20337;-82
2023/10/02 18:21:42;;;;;;;15.15;9.50;;;23.50;93.80;;;;;;6240280;23;20008;-82
2023/10/02 18:24:28;;;;;;;19.80;10.10;;;23.40;94.00;;;;;;6240670;23;20055;-81
2023/10/02 18:27:15;;;;;;;15.10;8.30;;;23.40;94.00;;;;;;6240759;23;20016;-79
2023/10/02 18:30:02;;;;;;;14.45;8.45;;;23.40;94.00;;;;;;6238251;23;20004;-79
2023/10/02 18:32:48;;;;;;;21.38;9.23;;;23.30;94.10;;;;;;6241276;23;20445;-79
2023/10/02 18:35:36;;;;;;;16.75;8.52;;;23.30;94.00;;;;;;6238918;23;20024;-79
2023/10/02 18:38:22;;;;;;;14.73;8.25;;;23.20;94.20;;;;;;6239121;23;20082;-79
2023/10/02 18:41:10;;;;;;;16.20;8.23;;;23.20;94.40;;;;;;6238877;23;20004;-79
2023/10/02 18:44:01;;;;;;;16.25;9.35;;;23.10;94.40;;;;;;6239241;23;20004;-78
2023/10/02 18:46:47;;;;;;;17.00;8.25;;;23.10;94.40;;;;;;6238285;23;20019;-79
2023/10/02 18:49:34;;;;;;;15.23;8.50;;;23.00;94.40;;;;;;6240210;23;20008;-79
2023/10/02 18:52:20;;;;;;;15.93;8.63;;;23.00;94.50;;;;;;6241250;23;20450;-81
2023/10/02 18:55:08;;;;;;;18.42;9.38;;;22.90;94.50;;;;;;6217303;22;20143;-77
2023/10/02 18:57:54;;;;;;;15.88;9.40;;;22.90;94.60;;;;;;6240669;23;20008;-81
2023/10/02 19:00:40;;;;;;;13.73;8.70;;;22.80;94.70;;;;;;6240562;23;20012;-81
2023/10/02 19:03:26;;;;;;;19.40;9.70;;;22.80;94.70;;;;;;6240115;23;20311;-81
2023/10/02 19:06:22;;;;;;;15.75;9.40;;;22.80;94.80;;;;;;6218206;23;20008;-82
2023/10/02 19:09:11;;;;;;;19.08;9.57;;;22.70;95.10;;;;;;6241495;23;20027;-82
2023/10/02 19:11:58;;;;;;;15.45;8.77;;;22.70;95.00;;;;;;6241080;23;20090;-79
2023/10/02 19:14:43;;;;;;;19.20;9.85;;;22.60;95.10;;;;;;6229359;23;20027;-82
2023/10/02 19:17:29;;;;;;;14.75;8.88;;;22.60;95.10;;;;;;6240705;23;20082;-81
2023/10/02 19:20:15;;;;;;;20.33;9.98;;;22.60;95.20;;;;;;6238318;23;20012;-77
2023/10/02 19:23:01;;;;;;;20.35;10.23;;;22.50;95.20;;;;;;6239028;23;20012;-80
2023/10/02 19:25:47;;;;;;;20.17;10.60;;;22.50;95.30;;;;;;6241324;23;20073;-82
2023/10/02 19:28:33;;;;;;;14.13;9.13;;;22.50;95.40;;;;;;6219859;23;20074;-81
2023/10/02 19:31:20;;;;;;;17.45;9.68;;;22.50;95.40;;;;;;6240473;23;20004;-81
2023/10/02 19:34:05;;;;;;;16.60;8.85;;;22.40;95.40;;;;;;6241847;23;20012;-81
2023/10/02 19:36:52;;;;;;;16.17;9.73;;;22.40;95.50;;;;;;6240324;23;20019;-80
2023/10/02 19:39:38;;;;;;;15.80;9.10;;;22.30;95.60;;;;;;6240344;23;20026;-80
2023/10/02 19:42:24;;;;;;;19.17;10.25;;;22.30;95.60;;;;;;6239764;23;20622;-80
2023/10/02 19:45:11;;;;;;;17.05;9.57;;;22.30;95.60;;;;;;6240602;23;20015;-78
2023/10/02 19:47:57;;;;;;;15.30;10.07;;;22.20;95.60;;;;;;6241757;23;20012;-79
2023/10/02 19:50:43;;;;;;;19.83;10.90;;;22.20;95.60;;;;;;6240387;23;20004;-82
2023/10/02 19:53:29;;;;;;;16.63;8.98;;;22.20;95.70;;;;;;6240793;23;20044;-82
2023/10/02 19:56:15;;;;;;;19.45;9.75;;;22.10;95.70;;;;;;6240523;22;20027;-80
2023/10/02 19:59:02;;;;;;;16.73;10.07;;;22.10;95.80;;;;;;6239678;23;20517;-77
2023/10/02 20:01:48;;;;;;;14.10;8.43;;;22.10;95.80;;;;;;6215875;23;20023;-78
2023/10/02 20:04:35;;;;;;;18.58;10.38;;;22.00;95.80;;;;;;6240292;23;20457;-79
2023/10/02 20:07:22;;;;;;;17.95;9.82;;;22.00;95.80;;;;;;6240225;23;20008;-80
2023/10/02 20:10:11;;;;;;;17.45;9.55;;;22.00;95.90;;;;;;6239778;23;20011;-80
2023/10/02 20:12:57;;;;;;;16.90;9.75;;;21.90;96.00;;;;;;6240084;23;20091;-80
2023/10/02 20:15:43;;;;;;;16.15;9.88;;;21.90;96.00;;;;;;6240094;23;20077;-75
2023/10/02 20:18:29;;;;;;;16.33;8.90;;;21.90;96.00;;;;;;6240604;23;20001;-74
2023/10/02 20:21:18;;;;;;;16.13;8.63;;;21.90;96.10;;;;;;6239073;23;20008;-74
2023/10/02 20:24:05;;;;;;;14.63;9.02;;;21.80;96.00;;;;;;6218259;23;20004;-74
2023/10/02 20:26:51;;;;;;;17.73;9.10;;;21.80;96.10;;;;;;6240015;23;20472;-75
2023/10/02 20:29:37;;;;;;;17.10;8.52;;;21.80;96.10;;;;;;6238753;23;20446;-74
2023/10/02 20:32:25;;;;;;;18.27;8.55;;;21.80;96.20;;;;;;6239433;23;20008;-75
2023/10/02 20:35:11;;;;;;;15.80;8.75;;;21.70;96.20;;;;;;6238851;23;20016;-75
2023/10/02 20:37:57;;;;;;;15.10;9.82;;;21.70;96.30;;;;;;6238599;23;20082;-74
2023/10/02 20:40:43;;;;;;;15.73;8.80;;;21.70;96.30;;;;;;6239253;23;20010;-75
2023/10/02 20:43:29;;;;;;;19.42;10.05;;;21.70;96.30;;;;;;6237432;23;20350;-74
2023/10/02 20:46:15;;;;;;;15.10;8.27;;;21.60;96.30;;;;;;6241319;23;20004;-74
2023/10/02 20:49:01;;;;;;;13.25;8.07;;;21.60;96.40;;;;;;6238490;23;20604;-75
2023/10/02 20:51:49;;;;;;;14.73;8.52;;;21.60;96.40;;;;;;6239972;23;20004;-74
2023/10/02 20:54:35;;;;;;;13.32;7.70;;;21.60;96.40;;;;;;6239366;23;20016;-76
2023/10/02 20:57:21;;;;;;;13.68;8.50;;;21.50;96.40;;;;;;6238988;22;20020;-76
2023/10/02 21:00:12;;;;;;;13.52;8.13;;;21.50;96.50;;;;;;6240086;23;20058;-75
2023/10/02 21:03:01;;;;;;;13.00;7.50;;;21.50;96.40;;;;;;6239930;23;20015;-75
2023/10/02 21:05:47;;;;;;;22.02;8.32;;;21.40;96.40;;;;;;6240016;23;20338;-75
2023/10/02 21:08:34;;;;;;;15.15;7.20;;;21.40;96.40;;;;;;6240301;23;20064;-75
2023/10/02 21:11:22;;;;;;;15.43;7.25;;;21.40;96.40;;;;;;6240173;23;20707;-74
2023/10/02 21:14:08;;;;;;;15.18;8.00;;;21.40;96.40;;;;;;6242060;23;20036;-75
2023/10/02 21:16:54;;;;;;;14.38;8.00;;;21.40;96.50;;;;;;6242367;23;20102;-74
2023/10/02 21:19:39;;;;;;;15.85;7.53;;;21.30;96.50;;;;;;6240969;23;20452;-75
2023/10/02 21:22:26;;;;;;;15.25;7.97;;;21.30;96.50;;;;;;6240397;23;20342;-74